Time;durP1;ratioP1;P1;durP2;ratioP2;P2;SDS_P1;SDS_P2;PMS_P1;PMS_P2;Temp;Humidity;BMP_temperature;BMP_pressure;BME280_temperature;BME280_humidity;BME280_pressure;Samples;Min_cycle;Max_cycle;Signal;HPM_P1;HPM_P2
2022/03/29 00:01:02;;;;;;;17.38;10.63;;;;;;;11.77;41.61;95629.38;5106584;28;20089;-70
2022/03/29 00:03:27;;;;;;;15.82;10.70;;;;;;;11.78;41.53;95619.47;5107495;28;20030;-70
2022/03/29 00:05:53;;;;;;;20.00;10.48;;;;;;;11.79;41.37;95619.28;5106748;28;20093;-71
2022/03/29 00:08:18;;;;;;;19.02;10.82;;;;;;;11.79;41.44;95608.53;5106622;28;20422;-69
2022/03/29 00:10:44;;;;;;;16.52;10.80;;;;;;;11.78;41.68;95608.72;5107212;28;20523;-70
2022/03/29 00:13:10;;;;;;;16.80;9.75;;;;;;;11.83;40.84;95609.84;5106432;28;20011;-70
2022/03/29 00:19:21;;;;;;;15.00;9.55;;;;;;;11.89;40.58;95605.63;5107211;28;20051;-70
2022/03/29 00:21:47;;;;;;;14.88;8.27;;;;;;;11.84;41.05;95608.84;5105795;28;20031;-69
2022/03/29 00:24:12;;;;;;;11.25;8.40;;;;;;;11.94;40.70;95605.06;5107422;28;20450;-69
2022/03/29 00:26:38;;;;;;;14.57;8.38;;;;;;;11.98;40.80;95595.63;5105898;28;20551;-70
2022/03/29 00:29:04;;;;;;;13.00;8.57;;;;;;;12.04;40.72;95594.88;5106629;28;20040;-71
2022/03/29 00:31:29;;;;;;;12.85;8.02;;;;;;;12.11;40.28;95600.41;5106251;28;20024;-70
2022/03/29 00:33:55;;;;;;;10.65;7.93;;;;;;;12.11;40.59;95586.97;5106061;28;20056;-69
2022/03/29 00:36:20;;;;;;;13.65;8.52;;;;;;;12.09;40.17;95586.31;5106526;28;20024;-70
2022/03/29 00:38:48;;;;;;;14.07;8.30;;;;;;;12.10;40.30;95586.16;5105236;28;20027;-71
2022/03/29 00:41:14;;;;;;;11.38;7.85;;;;;;;12.12;40.65;95577.91;5106944;28;20035;-70
2022/03/29 00:43:40;;;;;;;11.30;7.88;;;;;;;12.16;39.97;95576.50;5105918;28;20034;-69
2022/03/29 00:46:06;;;;;;;11.25;7.97;;;;;;;12.14;40.50;95573.16;5106372;28;20035;-70
2022/03/29 00:48:31;;;;;;;10.88;8.05;;;;;;;12.13;40.58;95576.88;5105924;28;20030;-69
2022/03/29 00:50:57;;;;;;;11.43;7.88;;;;;;;12.07;40.82;95580.25;5105764;28;20031;-69
2022/03/29 00:53:23;;;;;;;9.90;8.10;;;;;;;12.09;41.34;95567.50;5104919;28;20031;-70
2022/03/29 00:55:48;;;;;;;14.27;9.27;;;;;;;12.08;41.25;95563.13;5105518;28;20030;-69
2022/03/29 00:58:14;;;;;;;12.73;8.35;;;;;;;12.06;41.41;95557.91;5106408;28;20324;-69
2022/03/29 01:00:40;;;;;;;10.77;7.90;;;;;;;11.96;42.42;95560.84;5105618;28;20024;-72
2022/03/29 01:03:05;;;;;;;14.15;8.07;;;;;;;11.87;42.55;95561.94;5104933;28;20504;-69
2022/03/29 01:05:31;;;;;;;11.75;7.88;;;;;;;11.82;42.47;95558.97;5104025;28;20027;-71
2022/03/29 01:07:57;;;;;;;14.30;7.97;;;;;;;11.80;42.53;95566.41;5105544;28;20027;-73
2022/03/29 01:10:23;;;;;;;11.80;8.00;;;;;;;11.75;42.93;95553.50;5105589;28;20077;-70
2022/03/29 01:12:49;;;;;;;14.13;8.68;;;;;;;11.77;42.56;95550.63;5104644;28;20020;-71
2022/03/29 01:15:14;;;;;;;16.80;8.63;;;;;;;11.68;43.18;95553.38;5070933;28;20064;-70
2022/03/29 01:17:41;;;;;;;12.73;8.73;;;;;;;11.65;43.28;95540.31;5103871;28;20084;-76
2022/03/29 01:20:29;;;;;;;13.55;8.45;;;;;;;11.61;43.46;95536.31;5104906;28;20038;-70
2022/03/29 01:22:56;;;;;;;15.10;8.75;;;;;;;11.43;43.89;95526.72;5104854;28;20035;-70
2022/03/29 01:25:26;;;;;;;13.13;8.63;;;;;;;11.34;43.66;95525.13;5105705;28;20019;-70
2022/03/29 01:27:52;;;;;;;17.92;8.60;;;;;;;11.29;44.11;95522.13;5104272;28;20030;-71
2022/03/29 01:30:18;;;;;;;16.27;9.25;;;;;;;11.23;44.46;95516.47;5105204;28;20023;-70
2022/03/29 01:32:45;;;;;;;14.00;8.77;;;;;;;11.17;44.69;95513.66;5105922;28;20098;-70
2022/03/29 01:35:10;;;;;;;12.75;9.25;;;;;;;11.12;44.75;95517.72;5104786;28;20107;-70
2022/03/29 01:37:36;;;;;;;17.48;9.95;;;;;;;11.03;44.33;95507.22;5106020;28;20020;-71
2022/03/29 01:40:09;;;;;;;18.55;10.13;;;;;;;10.91;44.49;95504.97;5103157;28;20035;-70
2022/03/29 01:42:35;;;;;;;20.77;11.13;;;;;;;10.80;44.48;95502.66;5104348;28;20050;-71
2022/03/29 01:45:00;;;;;;;21.23;11.40;;;;;;;10.71;44.57;95502.72;5105030;28;20398;-71
2022/03/29 01:47:26;;;;;;;21.48;11.57;;;;;;;10.59;44.77;95504.13;5105205;28;20020;-70
2022/03/29 01:49:51;;;;;;;22.88;10.68;;;;;;;10.51;44.76;95489.72;5105510;28;20027;-74
2022/03/29 01:52:17;;;;;;;18.88;11.05;;;;;;;10.38;45.04;95497.50;5088962;28;20024;-70
2022/03/29 01:54:42;;;;;;;18.38;10.32;;;;;;;10.36;45.25;95504.84;5110117;28;20024;-69
2022/03/29 01:57:08;;;;;;;18.63;10.25;;;;;;;10.24;45.26;95499.03;5108413;28;20028;-70
2022/03/29 02:02:17;;;;;;;17.08;9.88;;;;;;;9.91;46.30;95494.63;5109011;28;20123;-72
2022/03/29 02:04:43;;;;;;;20.38;11.10;;;;;;;9.88;46.59;95492.28;5109246;28;20432;-72
2022/03/29 02:07:08;;;;;;;20.63;10.32;;;;;;;9.84;47.28;95485.59;5110060;28;20467;-72
2022/03/29 02:09:34;;;;;;;19.20;10.88;;;;;;;9.82;46.81;95487.63;5107176;28;20048;-70
2022/03/29 02:12:00;;;;;;;16.92;10.48;;;;;;;9.72;47.50;95491.28;5109955;28;20154;-71
2022/03/29 02:14:26;;;;;;;20.05;10.52;;;;;;;9.64;47.59;95480.63;5108880;28;20028;-71
2022/03/29 02:16:51;;;;;;;17.42;10.57;;;;;;;9.62;47.69;95475.41;5109425;28;20028;-70
2022/03/29 02:19:17;;;;;;;21.60;11.95;;;;;;;9.62;47.94;95470.06;5108477;28;20028;-71
2022/03/29 02:21:42;;;;;;;23.00;11.57;;;;;;;9.64;48.21;95472.59;5109459;28;20019;-70
2022/03/29 02:24:07;;;;;;;18.33;10.50;;;;;;;9.68;48.17;95465.88;5108913;27;20092;-71
2022/03/29 02:26:33;;;;;;;18.67;11.50;;;;;;;9.67;47.93;95476.75;5108556;28;20028;-70
2022/03/29 02:28:58;;;;;;;21.52;10.65;;;;;;;9.67;47.89;95463.38;5109549;28;20020;-70
2022/03/29 02:31:24;;;;;;;18.95;10.77;;;;;;;9.68;47.86;95465.88;5108391;28;20028;-70
2022/03/29 02:33:50;;;;;;;18.50;10.75;;;;;;;9.65;48.24;95463.53;5109328;28;20489;-70
2022/03/29 02:36:16;;;;;;;17.83;10.63;;;;;;;9.60;48.15;95461.38;5107854;28;20031;-70
2022/03/29 02:38:41;;;;;;;18.08;11.40;;;;;;;9.51;48.34;95457.84;5108892;28;20468;-69
2022/03/29 02:41:07;;;;;;;18.20;11.50;;;;;;;9.46;48.67;95454.84;5108599;27;20027;-70
2022/03/29 02:43:32;;;;;;;18.23;11.30;;;;;;;9.44;48.49;95456.03;5108542;28;20024;-70
2022/03/29 02:45:57;;;;;;;19.92;12.10;;;;;;;9.32;48.42;95456.38;5108705;28;20028;-70
2022/03/29 02:48:23;;;;;;;20.75;11.85;;;;;;;9.28;48.52;95455.88;5107869;28;20031;-70
2022/03/29 02:50:48;;;;;;;18.73;11.73;;;;;;;9.31;48.49;95454.72;5107601;28;20028;-70
2022/03/29 02:53:15;;;;;;;20.35;11.70;;;;;;;9.25;48.73;95456.22;5107850;28;20050;-69
2022/03/29 02:55:41;;;;;;;19.77;11.68;;;;;;;9.21;48.92;95456.72;5108474;28;20028;-70
2022/03/29 02:58:06;;;;;;;27.90;12.45;;;;;;;9.15;49.08;95459.09;5107858;28;20479;-71
2022/03/29 03:00:32;;;;;;;22.92;12.68;;;;;;;9.06;49.42;95461.91;5108467;28;20031;-71
2022/03/29 03:02:58;;;;;;;21.88;12.73;;;;;;;9.05;48.99;95460.22;5107723;28;20532;-70
2022/03/29 03:05:24;;;;;;;26.05;12.43;;;;;;;8.97;49.31;95458.38;5107773;28;20047;-71
2022/03/29 03:07:49;;;;;;;20.98;12.23;;;;;;;8.89;49.65;95460.06;5108390;28;20115;-70
2022/03/29 03:10:15;;;;;;;21.00;11.98;;;;;;;8.86;49.29;95454.22;5107583;28;20035;-71
2022/03/29 03:12:44;;;;;;;23.63;13.05;;;;;;;8.80;49.45;95454.88;5108618;28;20019;-69
2022/03/29 03:15:11;;;;;;;24.48;12.85;;;;;;;8.73;49.88;95449.34;5107519;28;20030;-72
2022/03/29 03:17:37;;;;;;;20.33;12.38;;;;;;;8.72;50.07;95451.16;5108430;28;20035;-71
2022/03/29 03:20:03;;;;;;;23.02;13.57;;;;;;;8.69;49.90;95448.81;5107899;28;20019;-71
2022/03/29 03:22:28;;;;;;;22.70;13.15;;;;;;;8.63;50.49;95450.34;5107513;28;20597;-72
2022/03/29 03:24:54;;;;;;;25.15;13.00;;;;;;;8.49;51.00;95445.59;5108127;28;20912;-71
2022/03/29 03:27:20;;;;;;;22.20;13.18;;;;;;;8.36;50.89;95446.91;5105991;28;20020;-71
2022/03/29 03:29:45;;;;;;;29.35;14.52;;;;;;;8.28;51.82;95446.88;5108165;28;20830;-71
2022/03/29 03:32:14;;;;;;;32.28;14.38;;;;;;;8.24;51.44;95454.38;5107042;28;20027;-69
2022/03/29 03:34:39;;;;;;;26.30;15.02;;;;;;;8.27;51.75;95446.03;5107800;28;20020;-71
2022/03/29 03:37:05;;;;;;;26.17;14.27;;;;;;;8.20;51.66;95449.53;5107267;28;20423;-72
2022/03/29 03:39:34;;;;;;;26.73;13.85;;;;;;;8.14;51.38;95454.50;5107442;28;20016;-72
2022/03/29 03:42:00;;;;;;;28.48;14.45;;;;;;;8.13;51.27;95450.16;5107901;28;20028;-70
2022/03/29 03:44:27;;;;;;;22.17;12.85;;;;;;;8.14;51.48;95457.16;5105945;28;20023;-70
2022/03/29 03:46:52;;;;;;;22.98;13.70;;;;;;;8.06;51.66;95448.31;5107513;28;20443;-70
2022/03/29 03:49:18;;;;;;;24.58;13.55;;;;;;;8.04;51.83;95453.81;5106723;28;20030;-70
2022/03/29 03:51:43;;;;;;;21.50;13.10;;;;;;;8.00;51.54;95458.63;5107429;28;20023;-70
2022/03/29 03:54:08;;;;;;;30.58;14.50;;;;;;;7.91;51.56;95455.06;5106797;28;20057;-70
2022/03/29 03:56:34;;;;;;;35.08;15.45;;;;;;;7.88;51.76;95457.25;5107123;28;20035;-74
2022/03/29 03:58:59;;;;;;;25.00;13.98;;;;;;;7.88;51.90;95451.91;5107223;28;20016;-71
2022/03/29 04:01:25;;;;;;;25.60;13.80;;;;;;;7.89;52.31;95457.09;5107220;28;20111;-71
2022/03/29 04:03:51;;;;;;;24.50;14.13;;;;;;;7.93;52.42;95457.59;5107206;28;20024;-71
2022/03/29 04:06:16;;;;;;;25.50;13.60;;;;;;;7.94;52.29;95451.25;5106536;28;20499;-71
2022/03/29 04:08:42;;;;;;;27.90;14.75;;;;;;;7.90;52.54;95449.88;5107170;28;20048;-70
2022/03/29 04:11:07;;;;;;;21.05;13.40;;;;;;;7.96;52.85;95461.78;5106045;28;20494;-72
2022/03/29 04:13:34;;;;;;;29.00;13.90;;;;;;;7.91;53.00;95455.06;5106736;27;20332;-70
2022/03/29 04:16:00;;;;;;;30.50;14.80;;;;;;;7.93;53.13;95446.09;5106236;28;20031;-70
2022/03/29 04:18:25;;;;;;;21.85;12.65;;;;;;;7.97;53.35;95440.25;5107151;28;20050;-70
2022/03/29 04:20:51;;;;;;;25.80;13.15;;;;;;;8.03;53.46;95460.13;5105382;28;20467;-70
2022/03/29 04:23:16;;;;;;;34.63;15.65;;;;;;;8.05;53.12;95450.13;5106462;28;20032;-71
2022/03/29 04:25:42;;;;;;;25.65;13.63;;;;;;;8.06;53.52;95453.66;5106890;28;20024;-71
2022/03/29 04:28:07;;;;;;;27.40;13.27;;;;;;;8.01;53.98;95457.63;5106523;28;20098;-71
2022/03/29 04:30:33;;;;;;;24.10;13.50;;;;;;;8.12;53.02;95458.34;5107189;28;20039;-70
2022/03/29 04:32:58;;;;;;;24.10;12.93;;;;;;;8.21;53.14;95449.34;5105577;28;20053;-71
2022/03/29 04:35:23;;;;;;;17.08;11.20;;;;;;;8.16;53.33;95449.84;5106740;28;20080;-70
2022/03/29 04:37:49;;;;;;;21.85;12.10;;;;;;;8.21;53.29;95448.50;5105694;28;20160;-70
2022/03/29 04:40:14;;;;;;;19.77;11.40;;;;;;;8.27;52.96;95455.91;5106241;28;20057;-71
2022/03/29 04:42:44;;;;;;;20.50;11.95;;;;;;;8.36;52.61;95454.94;5106444;28;20028;-72
2022/03/29 04:45:09;;;;;;;37.90;18.52;;;;;;;8.27;52.59;95454.03;5104608;28;20134;-71
2022/03/29 04:47:35;;;;;;;32.80;18.75;;;;;;;8.30;52.56;95450.22;5107070;28;20019;-71
2022/03/29 04:50:00;;;;;;;34.60;17.80;;;;;;;8.31;52.75;95451.06;5105511;28;20124;-70
2022/03/29 04:52:26;;;;;;;25.77;15.38;;;;;;;8.33;52.86;95449.06;5106360;28;20422;-69
2022/03/29 04:54:52;;;;;;;24.40;12.90;;;;;;;8.35;53.25;95442.53;5105360;28;20375;-70
2022/03/29 04:57:18;;;;;;;22.50;14.18;;;;;;;8.40;53.18;95442.06;5106471;28;20176;-70
2022/03/29 04:59:43;;;;;;;17.63;11.75;;;;;;;8.45;53.21;95439.72;5106081;28;20432;-71
2022/03/29 05:02:10;;;;;;;25.63;14.68;;;;;;;8.58;52.81;95451.81;5105673;28;20043;-71
2022/03/29 05:04:35;;;;;;;30.23;15.88;;;;;;;8.64;52.47;95438.63;5106764;27;20019;-69
2022/03/29 05:07:00;;;;;;;33.13;18.23;;;;;;;8.77;52.17;95446.16;5105227;28;20109;-70
2022/03/29 05:09:26;;;;;;;45.85;22.77;;;;;;;8.83;51.76;95439.34;5106357;28;20093;-71
2022/03/29 05:11:51;;;;;;;38.45;19.58;;;;;;;8.87;52.19;95429.13;5105156;28;20092;-71
2022/03/29 05:14:17;;;;;;;24.20;15.32;;;;;;;9.06;51.86;95435.97;5105883;28;20019;-70
2022/03/29 05:16:42;;;;;;;26.88;13.15;;;;;;;9.26;51.46;95441.00;5105580;28;20038;-70
2022/03/29 05:19:08;;;;;;;24.63;12.10;;;;;;;9.46;51.34;95433.44;5105640;28;20027;-69
2022/03/29 05:21:33;;;;;;;20.45;11.98;;;;;;;9.57;51.33;95434.09;5106052;28;20097;-71
2022/03/29 05:23:59;;;;;;;25.40;12.50;;;;;;;9.75;51.42;95436.56;5105042;28;20034;-70
2022/03/29 05:26:24;;;;;;;27.98;13.48;;;;;;;9.88;51.39;95431.50;5106103;28;20027;-71
2022/03/29 05:28:50;;;;;;;30.55;15.60;;;;;;;10.01;50.61;95430.13;5104954;28;20020;-69
2022/03/29 05:31:15;;;;;;;27.85;15.43;;;;;;;10.10;50.60;95436.28;5105914;28;20031;-72
2022/03/29 05:33:41;;;;;;;32.45;17.00;;;;;;;10.32;49.65;95425.78;5105268;28;20030;-72
2022/03/29 05:36:07;;;;;;;36.85;17.80;;;;;;;10.45;49.03;95431.41;5105566;28;20041;-70
2022/03/29 05:38:32;;;;;;;32.85;17.70;;;;;;;10.58;48.42;95436.22;5104185;28;20023;-72
2022/03/29 05:40:58;;;;;;;29.80;18.33;;;;;;;10.65;48.21;95427.47;5105480;28;20044;-72
2022/03/29 05:43:24;;;;;;;31.10;20.88;;;;;;;10.88;47.67;95439.03;5105563;28;20035;-71
2022/03/29 05:48:52;;;;;;;44.47;21.52;;;;;;;11.05;47.57;95432.72;5104846;28;20026;-72
2022/03/29 05:48:55;;;;;;;33.05;21.08;;;;;;;11.29;46.94;95433.53;5105832;28;20161;-70
2022/03/29 05:51:22;;;;;;;40.33;23.67;;;;;;;11.40;46.91;95427.72;5104969;28;20488;-71
2022/03/29 05:53:47;;;;;;;37.00;22.17;;;;;;;11.58;46.47;95429.22;5105308;28;20020;-70
2022/03/29 05:56:12;;;;;;;39.55;24.00;;;;;;;11.68;45.96;95429.81;5105427;28;20027;-72
2022/03/29 05:58:38;;;;;;;34.65;20.30;;;;;;;11.83;45.74;95426.28;5105038;28;20020;-72
2022/03/29 06:01:03;;;;;;;32.83;16.90;;;;;;;12.04;45.33;95438.16;5106043;28;20023;-71
2022/03/29 06:03:29;;;;;;;32.92;19.27;;;;;;;12.16;44.90;95427.78;5104343;28;20026;-70
2022/03/29 06:05:54;;;;;;;36.95;18.95;;;;;;;12.24;44.54;95423.16;5105581;28;20482;-71
2022/03/29 06:08:20;;;;;;;33.17;18.52;;;;;;;12.22;44.45;95425.19;5104372;28;20525;-71
2022/03/29 06:10:45;;;;;;;34.50;18.75;;;;;;;12.35;44.15;95426.34;5105227;28;20031;-71
2022/03/29 06:13:12;;;;;;;28.45;18.05;;;;;;;12.55;43.74;95423.06;5104862;28;20030;-70
2022/03/29 06:15:38;;;;;;;33.85;17.67;;;;;;;12.73;43.78;95426.16;5105103;28;20479;-70
2022/03/29 06:18:03;;;;;;;30.20;17.15;;;;;;;12.79;43.25;95427.28;5105721;28;20116;-71
2022/03/29 06:20:29;;;;;;;30.83;18.05;;;;;;;12.37;44.61;95427.00;5104283;28;20024;-70
2022/03/29 06:22:54;;;;;;;29.35;18.85;;;;;;;12.45;44.32;95421.53;5106086;28;20024;-69
2022/03/29 06:25:20;;;;;;;28.15;18.25;;;;;;;12.70;43.73;95413.09;5104125;28;20020;-71
2022/03/29 06:27:45;;;;;;;29.75;18.15;;;;;;;13.04;43.36;95413.41;5105346;28;20031;-71
2022/03/29 06:30:11;;;;;;;29.80;17.08;;;;;;;13.34;41.70;95417.84;5104795;28;20027;-71
2022/03/29 06:32:47;;;;;;;27.50;15.70;;;;;;;13.45;41.55;95420.00;5104818;28;20024;-72
2022/03/29 06:35:12;;;;;;;23.58;13.77;;;;;;;13.63;41.81;95412.47;5103892;28;20048;-71
2022/03/29 06:37:38;;;;;;;28.58;18.00;;;;;;;13.61;41.69;95409.16;5105692;28;20047;-71
2022/03/29 06:40:04;;;;;;;28.33;16.40;;;;;;;13.63;41.53;95410.63;5109317;28;20027;-70
2022/03/29 06:42:30;;;;;;;23.35;15.80;;;;;;;13.72;41.40;95405.91;5107909;28;20027;-71
2022/03/29 06:44:55;;;;;;;16.90;11.23;;;;;;;13.62;40.79;95413.50;5109076;28;20405;-71
2022/03/29 06:47:20;;;;;;;18.23;11.82;;;;;;;13.85;40.72;95402.44;5107882;28;20040;-73
2022/03/29 06:49:46;;;;;;;15.45;8.77;;;;;;;14.08;40.67;95409.41;5108884;28;20019;-72
2022/03/29 06:52:11;;;;;;;15.77;7.72;;;;;;;14.17;40.31;95399.31;5108700;28;20036;-72
2022/03/29 06:54:37;;;;;;;15.25;7.25;;;;;;;14.39;39.90;95400.03;5108168;28;20521;-72
2022/03/29 06:57:06;;;;;;;11.02;6.60;;;;;;;14.50;39.06;95403.16;5109555;28;20030;-71
2022/03/29 06:59:31;;;;;;;17.20;7.35;;;;;;;14.65;38.56;95411.09;5107836;27;20028;-71
2022/03/29 07:01:57;;;;;;;15.38;6.47;;;;;;;14.71;37.47;95400.31;5109073;28;20191;-71
2022/03/29 07:04:22;;;;;;;15.07;5.57;;;;;;;14.69;37.12;95402.41;5107687;28;20415;-71
2022/03/29 07:06:47;;;;;;;10.25;5.50;;;;;;;14.81;36.71;95397.28;5108550;28;20519;-73
2022/03/29 07:11:57;;;;;;;17.50;6.30;;;;;;;14.93;36.53;95394.78;5107988;28;20050;-70
2022/03/29 07:14:22;;;;;;;11.55;5.00;;;;;;;14.86;36.06;95393.94;5108455;28;20023;-70
2022/03/29 07:16:48;;;;;;;16.02;5.20;;;;;;;14.84;36.14;95401.41;5107187;28;20035;-73
2022/03/29 07:19:13;;;;;;;9.07;5.05;;;;;;;14.91;36.15;95394.16;5109021;28;20023;-71
2022/03/29 07:21:39;;;;;;;12.73;5.70;;;;;;;15.04;36.61;95401.44;5107119;28;20031;-73
2022/03/29 07:24:08;;;;;;;10.10;5.25;;;;;;;15.05;35.79;95402.28;5089914;28;20471;-72
2022/03/29 07:26:34;;;;;;;16.70;6.30;;;;;;;15.05;36.60;95400.41;5106216;28;20031;-71
2022/03/29 07:29:00;;;;;;;11.30;5.85;;;;;;;15.10;36.60;95398.97;5107775;28;20026;-73
2022/03/29 07:31:25;;;;;;;11.52;5.70;;;;;;;15.17;36.61;95400.63;5106659;28;20031;-71
2022/03/29 07:33:50;;;;;;;12.23;6.47;;;;;;;15.18;36.75;95388.78;5106827;28;20092;-71
2022/03/29 07:36:16;;;;;;;13.65;6.07;;;;;;;15.25;36.45;95386.06;5108675;28;20031;-70
2022/03/29 07:38:41;;;;;;;18.95;6.00;;;;;;;15.35;35.98;95391.06;5106452;28;20049;-69
2022/03/29 07:41:07;;;;;;;11.45;5.45;;;;;;;15.21;35.77;95379.44;5107878;28;20031;-70
2022/03/29 07:43:32;;;;;;;19.73;6.22;;;;;;;15.32;35.90;95394.19;5106721;28;20077;-73
2022/03/29 07:45:58;;;;;;;13.77;7.03;;;;;;;15.29;36.09;95378.38;5107592;28;20073;-71
2022/03/29 07:48:24;;;;;;;14.00;5.93;;;;;;;15.34;35.95;95378.59;5106685;28;20027;-70
2022/03/29 07:50:49;;;;;;;8.85;5.38;;;;;;;15.32;35.85;95369.88;5106585;28;20016;-71
2022/03/29 07:53:14;;;;;;;10.85;5.45;;;;;;;15.30;35.64;95375.47;5107929;28;20490;-70
2022/03/29 07:55:40;;;;;;;11.35;5.35;;;;;;;15.38;35.23;95376.31;5106329;28;20032;-70
2022/03/29 07:58:06;;;;;;;12.02;5.28;;;;;;;15.50;34.89;95371.09;5107690;28;20032;-71
2022/03/29 08:00:31;;;;;;;10.00;5.40;;;;;;;15.63;34.94;95364.84;5106773;28;20031;-70
2022/03/29 08:03:18;;;;;;;16.42;5.25;;;;;;;15.68;34.10;95373.16;5107343;28;20023;-71
2022/03/29 08:05:45;;;;;;;10.50;4.60;;;;;;;15.71;33.95;95364.63;5106968;28;20541;-71
2022/03/29 08:08:13;;;;;;;15.02;5.22;;;;;;;15.77;34.00;95365.63;5106394;28;20020;-70
2022/03/29 08:10:38;;;;;;;17.17;5.22;;;;;;;15.84;33.50;95355.66;5107372;28;20031;-70
2022/03/29 08:13:06;;;;;;;12.48;4.70;;;;;;;15.77;34.12;95357.53;5106141;28;20035;-70
2022/03/29 08:15:32;;;;;;;9.55;4.68;;;;;;;15.89;33.76;95358.56;5106021;28;20020;-71
2022/03/29 08:17:58;;;;;;;14.82;5.20;;;;;;;15.81;33.15;95358.78;5105947;28;20020;-71
2022/03/29 08:20:23;;;;;;;14.57;5.07;;;;;;;15.88;33.44;95348.75;5106771;28;20035;-70
2022/03/29 08:22:49;;;;;;;15.77;4.95;;;;;;;15.81;33.58;95350.66;5106082;28;20088;-71
2022/03/29 08:25:15;;;;;;;15.90;5.20;;;;;;;15.99;33.58;95360.81;5106450;28;20497;-71
2022/03/29 08:27:41;;;;;;;13.75;4.88;;;;;;;15.94;33.64;95339.78;5107222;28;20020;-70
2022/03/29 08:30:07;;;;;;;12.68;5.00;;;;;;;16.06;33.54;95341.88;5105728;28;20482;-71
2022/03/29 08:32:35;;;;;;;13.13;4.80;;;;;;;16.06;33.62;95331.06;5106926;28;20107;-71
2022/03/29 08:35:00;;;;;;;13.65;5.05;;;;;;;15.98;33.72;95325.88;5105554;28;20020;-71
2022/03/29 08:37:26;;;;;;;13.93;5.22;;;;;;;16.19;32.90;95325.59;5105170;28;20028;-70
2022/03/29 08:39:51;;;;;;;12.88;5.25;;;;;;;16.38;32.90;95325.69;5106056;28;20024;-71
2022/03/29 08:42:18;;;;;;;11.07;4.57;;;;;;;16.15;33.04;95329.75;5106396;28;20466;-71
2022/03/29 08:44:43;;;;;;;12.13;5.20;;;;;;;16.12;32.77;95319.38;5106945;28;20024;-71
2022/03/29 08:47:09;;;;;;;7.43;5.18;;;;;;;16.13;34.40;95321.06;5105744;28;20453;-71
2022/03/29 08:49:35;;;;;;;10.75;5.18;;;;;;;16.23;32.83;95319.75;5107020;28;20027;-71
2022/03/29 08:52:01;;;;;;;13.75;5.65;;;;;;;16.36;33.27;95314.28;5105284;28;20049;-69
2022/03/29 08:54:27;;;;;;;12.10;5.10;;;;;;;16.26;32.64;95303.91;5106634;28;20110;-69
2022/03/29 08:56:52;;;;;;;14.27;5.55;;;;;;;16.17;32.72;95316.84;5105371;28;20077;-70
2022/03/29 08:59:18;;;;;;;11.27;5.38;;;;;;;16.15;32.92;95308.13;5105660;28;20027;-70
2022/03/29 09:01:44;;;;;;;12.63;5.22;;;;;;;16.18;32.93;95302.31;5105585;28;20024;-70
2022/03/29 09:04:10;;;;;;;12.63;4.93;;;;;;;16.17;33.12;95300.63;5105738;28;20405;-73
2022/03/29 09:07:04;;;;;;;13.57;6.40;;;;;;;16.32;32.74;95296.81;5106368;28;20454;-71
2022/03/29 09:09:31;;;;;;;14.80;5.90;;;;;;;16.45;32.63;95287.78;5087361;28;20031;-70
2022/03/29 09:11:57;;;;;;;11.23;5.90;;;;;;;16.56;32.34;95280.81;5106000;28;20046;-70
2022/03/29 09:14:23;;;;;;;12.40;5.20;;;;;;;16.63;32.43;95281.63;5105361;28;20044;-71
2022/03/29 09:16:50;;;;;;;10.63;5.38;;;;;;;16.68;32.58;95273.66;5104587;28;20493;-70
2022/03/29 09:19:15;;;;;;;12.50;5.97;;;;;;;16.72;31.91;95273.25;5105752;28;20324;-71
2022/03/29 09:21:42;;;;;;;11.15;5.85;;;;;;;16.78;32.36;95266.94;5105541;28;20035;-70
2022/03/29 09:24:11;;;;;;;13.55;5.10;;;;;;;16.90;32.48;95264.31;5106137;28;20043;-71
2022/03/29 09:26:38;;;;;;;11.18;6.20;;;;;;;16.97;31.78;95256.16;5105402;28;20119;-71
2022/03/29 09:29:20;;;;;;;15.40;6.05;;;;;;;17.01;31.79;95250.06;5105872;28;20080;-71
2022/03/29 09:31:49;;;;;;;11.38;5.53;;;;;;;17.05;31.55;95248.59;5105355;28;20042;-70
2022/03/29 09:34:20;;;;;;;14.18;5.30;;;;;;;17.05;31.84;95248.59;5105150;28;20031;-70
2022/03/29 09:36:48;;;;;;;12.10;5.30;;;;;;;17.11;31.46;95244.19;5105959;28;20596;-73
2022/03/29 09:39:37;;;;;;;10.77;5.10;;;;;;;16.97;30.87;95245.31;5103689;28;20447;-71
2022/03/29 09:42:11;;;;;;;14.73;6.88;;;;;;;17.09;30.62;95235.44;5104676;28;20036;-70
2022/03/29 09:44:44;;;;;;;10.07;5.32;;;;;;;17.07;31.34;95242.94;5104956;28;20035;-72
2022/03/29 09:47:11;;;;;;;13.23;4.70;;;;;;;17.26;31.12;95241.13;5104196;28;20051;-71
2022/03/29 09:49:49;;;;;;;11.60;5.43;;;;;;;17.35;30.10;95233.50;5106013;28;20440;-73
2022/03/29 09:52:18;;;;;;;8.80;4.97;;;;;;;17.40;30.41;95230.97;5104846;28;20039;-71
2022/03/29 09:55:06;;;;;;;11.05;5.50;;;;;;;17.54;31.21;95236.22;5105948;28;20032;-72
2022/03/29 09:57:44;;;;;;;9.73;4.97;;;;;;;17.57;30.64;95222.25;5105455;28;20027;-70
2022/03/29 10:00:12;;;;;;;14.55;5.30;;;;;;;17.54;31.20;95226.22;5104986;28;20027;-71
2022/03/29 10:02:40;;;;;;;10.07;5.45;;;;;;;17.60;30.29;95212.81;5105537;28;20502;-70
2022/03/29 10:05:06;;;;;;;13.93;4.80;;;;;;;17.64;30.08;95198.56;5104659;28;20509;-71
2022/03/29 10:07:43;;;;;;;17.42;6.30;;;;;;;17.71;29.98;95211.22;5104355;28;20024;-70
2022/03/29 10:10:10;;;;;;;12.27;5.47;;;;;;;17.66;29.50;95210.03;5104275;28;20423;-73
2022/03/29 10:12:35;;;;;;;14.15;5.25;;;;;;;17.64;30.41;95198.56;5106683;28;20108;-71
2022/03/29 10:15:01;;;;;;;10.55;5.88;;;;;;;17.61;31.17;95195.47;5107835;28;20103;-72
2022/03/29 10:17:26;;;;;;;13.48;5.68;;;;;;;17.64;30.37;95211.28;5108922;28;20320;-72
2022/03/29 10:19:52;;;;;;;15.57;5.55;;;;;;;17.69;30.30;95188.91;5109410;28;20027;-72
2022/03/29 10:22:17;;;;;;;12.50;5.13;;;;;;;17.80;30.15;95180.00;5107505;28;20027;-71
2022/03/29 10:24:43;;;;;;;15.68;5.68;;;;;;;17.88;30.70;95179.69;5108733;28;20039;-73
2022/03/29 10:27:08;;;;;;;19.08;7.07;;;;;;;18.04;29.99;95180.09;5108491;28;20486;-69
2022/03/29 10:29:35;;;;;;;12.82;5.03;;;;;;;18.03;28.70;95173.00;5107982;28;20028;-71
2022/03/29 10:32:02;;;;;;;9.00;4.57;;;;;;;17.80;28.37;95169.16;5108417;28;20024;-70
2022/03/29 10:34:40;;;;;;;20.10;5.82;;;;;;;17.71;28.65;95168.66;5108878;28;20027;-72
2022/03/29 10:37:16;;;;;;;10.13;5.13;;;;;;;17.74;28.65;95181.75;5109063;28;20478;-70
2022/03/29 10:40:04;;;;;;;13.60;6.07;;;;;;;17.65;28.24;95167.66;5108309;28;20019;-71
2022/03/29 10:42:30;;;;;;;16.80;4.80;;;;;;;17.82;28.73;95161.63;5108978;28;20031;-70
2022/03/29 10:45:17;;;;;;;33.45;6.13;;;;;;;17.87;29.05;95161.75;5108677;27;20027;-70
2022/03/29 10:48:07;;;;;;;18.05;5.05;;;;;;;17.83;28.87;95157.03;5109075;28;20039;-70
2022/03/29 10:50:54;;;;;;;11.23;4.70;;;;;;;17.70;28.83;95158.03;5105945;28;20418;-69
2022/03/29 10:53:26;;;;;;;11.32;4.60;;;;;;;17.81;28.23;95159.13;5107999;28;20089;-70
2022/03/29 10:56:10;;;;;;;15.37;5.77;;;;;;;17.82;29.00;95149.94;5108988;28;20103;-70
2022/03/29 10:58:36;;;;;;;16.85;5.00;;;;;;;17.95;29.92;95143.50;5108435;28;20031;-72
2022/03/29 11:01:12;;;;;;;13.98;5.13;;;;;;;18.00;28.80;95136.34;5108306;28;20092;-70
2022/03/29 11:03:37;;;;;;;15.43;5.63;;;;;;;18.09;28.34;95122.44;5108895;28;20034;-70
2022/03/29 11:06:04;;;;;;;11.93;5.25;;;;;;;18.07;28.77;95130.78;5089409;28;20028;-71
2022/03/29 11:08:30;;;;;;;13.02;5.78;;;;;;;17.97;28.31;95116.97;5107022;28;20031;-69
2022/03/29 11:10:56;;;;;;;10.23;5.18;;;;;;;17.97;28.93;95120.53;5106667;28;20020;-72
2022/03/29 11:13:37;;;;;;;10.30;4.88;;;;;;;18.04;28.29;95114.97;5107307;28;20036;-70
2022/03/29 11:16:25;;;;;;;11.63;5.30;;;;;;;18.12;28.60;95106.53;5108344;28;20024;-70
2022/03/29 11:18:51;;;;;;;14.13;5.13;;;;;;;18.18;27.62;95106.66;5094756;28;20044;-70
2022/03/29 11:21:30;;;;;;;10.32;4.72;;;;;;;18.02;27.62;95109.78;5108738;28;20028;-71
2022/03/29 11:23:57;;;;;;;13.13;4.40;;;;;;;18.07;28.12;95090.09;5107069;28;20398;-71
2022/03/29 11:26:23;;;;;;;9.85;5.25;;;;;;;18.15;28.17;95083.53;5108287;28;20028;-72
2022/03/29 11:28:52;;;;;;;9.55;5.10;;;;;;;18.10;28.41;95089.66;5089300;28;20501;-72
2022/03/29 11:31:18;;;;;;;17.95;5.80;;;;;;;18.06;28.07;95083.00;5107575;28;20114;-72
2022/03/29 11:33:46;;;;;;;9.20;5.30;;;;;;;18.01;27.64;95088.31;5108111;28;20027;-70